West Salem, Wisconsin
Current Conditions -  °F | °C
As of 2:53 AM on Friday 28 Nov 2014 (Local Time) from KLSE Reporting Station
Light Snow Light Snow  
Wind Chill:   Ceiling: 3000
Heat Index: 14°   Visibility: 2mi
Dew Point:   Wind: 8mph
Humidity: 77%   Direction: 140°SE
Pressure: 30.28"   Gusts: NA
Location:  43.9°N, 91.08°W
Report Text: KLSE 280853Z AUTO 14007KT 2SM -SN OVC030 M10/M13 A3028 RMK AO2 SLP276 P0001 60002 T11001133 56021
Loading
Personal Weather Stations






























Interactive Weather Map New forecast layout! Learn more

10-Day Weather Forecast

Advertisements
Track Severe Weather on mobile